Summerland Key, Florida
Current Conditions -  °F | °C
As of 4:10 AM on Thursday 23 Oct 2014 (Local Time) from KEYW Reporting Station
Light Rain Light Rain  
Wind Chill: 76°   Ceiling: 1300
Heat Index: 76°   Visibility: 10mi
Dew Point: 74°   Wind: 18mph
Humidity: 94%   Direction: 100°E
Pressure: 29.85"   Gusts: 23mph
Location:  24.67°N, 81.44°W
Report Text: KEYW 230810Z AUTO 10016G20KT 10SM -RA BKN013 BKN020 OVC029 24/23 A2985 RMK AO2 RAB0759 P0000 T02440233
Loading
Personal Weather Stations






























Interactive Weather Map
Tropical Storm Tracking
New forecast layout! Learn more

10-Day Weather Forecast

Advertisements
Track Severe Weather on mobile